Time;durP1;ratioP1;P1;durP2;ratioP2;P2;SDS_P1;SDS_P2;PMS_P1;PMS_P2;Temp;Humidity;BMP_temperature;BMP_pressure;BME280_temperature;BME280_humidity;BME280_pressure;Samples;Min_cycle;Max_cycle;Signal;HPM_P1;HPM_P2
2021/11/09 00:01:07;;;;;;;52.23;25.47;;;3.20;99.90;;;;;;5064517;28;20246;-61
2021/11/09 00:03:39;;;;;;;55.30;25.37;;;3.20;99.90;;;;;;5065556;28;20687;-61
2021/11/09 00:06:15;;;;;;;51.40;24.57;;;3.10;99.90;;;;;;5063062;28;20196;-61
2021/11/09 00:08:49;;;;;;;51.90;24.10;;;3.00;99.90;;;;;;5066646;28;20283;-62
2021/11/09 00:11:18;;;;;;;51.03;23.87;;;3.00;99.90;;;;;;5048312;28;20212;-61
2021/11/09 00:13:46;;;;;;;56.67;24.07;;;2.90;99.90;;;;;;5060810;28;20667;-61
2021/11/09 00:16:14;;;;;;;58.20;26.00;;;2.90;99.90;;;;;;5069025;28;20266;-61
2021/11/09 00:18:45;;;;;;;53.53;25.03;;;2.90;99.90;;;;;;5065253;28;20196;-61
2021/11/09 00:21:15;;;;;;;57.53;26.50;;;2.90;99.90;;;;;;5066332;28;20192;-61
2021/11/09 00:23:43;;;;;;;55.93;26.17;;;2.90;99.90;;;;;;5067800;28;20686;-61
2021/11/09 00:26:12;;;;;;;60.10;26.60;;;2.90;99.90;;;;;;5069607;28;20188;-61
2021/11/09 00:28:40;;;;;;;51.40;25.37;;;3.00;99.90;;;;;;5041618;28;20237;-61
2021/11/09 00:31:08;;;;;;;57.47;25.93;;;3.00;99.90;;;;;;5068989;28;20226;-61
2021/11/09 00:33:38;;;;;;;53.73;25.17;;;3.00;99.90;;;;;;5063686;28;20191;-61
2021/11/09 00:36:07;;;;;;;67.43;25.37;;;3.00;99.90;;;;;;5061835;28;20275;-61
2021/11/09 00:38:37;;;;;;;47.87;24.43;;;3.00;99.90;;;;;;5067566;28;20279;-61
2021/11/09 00:41:06;;;;;;;64.30;25.43;;;2.90;99.90;;;;;;5068818;28;20227;-61
2021/11/09 00:43:35;;;;;;;67.80;26.40;;;3.00;99.90;;;;;;5064160;28;20271;-61
2021/11/09 00:46:03;;;;;;;59.57;26.43;;;2.90;99.90;;;;;;5049301;28;20227;-61
2021/11/09 00:48:32;;;;;;;71.60;29.10;;;3.00;99.90;;;;;;5066880;28;20196;-61
2021/11/09 00:51:00;;;;;;;77.47;27.47;;;3.20;99.90;;;;;;5059597;28;20644;-61
2021/11/09 00:53:29;;;;;;;67.57;26.57;;;3.30;99.90;;;;;;5054158;28;20283;-61
2021/11/09 00:55:58;;;;;;;58.40;26.03;;;3.40;99.90;;;;;;5081436;28;20591;-61
2021/11/09 00:58:27;;;;;;;56.13;28.53;;;3.50;99.90;;;;;;5078147;28;20660;-61
2021/11/09 01:00:55;;;;;;;72.67;27.80;;;3.60;99.90;;;;;;5044569;28;20245;-61
2021/11/09 01:04:01;;;;;;;61.00;26.60;;;3.60;99.90;;;;;;5064053;28;20199;-61
2021/11/09 01:07:07;;;;;;;59.60;26.87;;;3.50;99.90;;;;;;5063798;28;20202;-61
2021/11/09 01:09:35;;;;;;;61.33;25.67;;;3.50;99.90;;;;;;5046045;28;20235;-61
2021/11/09 01:12:08;;;;;;;66.70;26.93;;;3.50;99.90;;;;;;5061495;28;20278;-61
2021/11/09 01:14:37;;;;;;;66.53;27.13;;;3.60;99.90;;;;;;5041530;28;20284;-61
2021/11/09 01:17:07;;;;;;;75.27;26.57;;;3.60;99.90;;;;;;5047770;28;20255;-61
2021/11/09 01:19:35;;;;;;;57.13;25.20;;;3.60;99.90;;;;;;5050306;28;20266;-61
2021/11/09 01:22:05;;;;;;;58.40;25.43;;;3.70;99.90;;;;;;5068675;28;20204;-61
2021/11/09 01:24:34;;;;;;;56.33;24.77;;;3.70;99.90;;;;;;5064974;28;20220;-62
2021/11/09 01:27:03;;;;;;;68.50;26.90;;;3.70;99.90;;;;;;5054420;28;20586;-61
2021/11/09 01:29:33;;;;;;;66.40;25.57;;;3.60;99.90;;;;;;5066444;28;20200;-61
2021/11/09 01:32:02;;;;;;;54.37;25.10;;;3.70;99.90;;;;;;5066321;28;20211;-61
2021/11/09 01:34:30;;;;;;;55.03;24.70;;;3.70;99.90;;;;;;5064825;28;20663;-61
2021/11/09 01:36:59;;;;;;;58.67;25.13;;;3.70;99.90;;;;;;5054326;28;20208;-61
2021/11/09 01:39:27;;;;;;;58.33;25.10;;;3.60;99.90;;;;;;5070223;28;20223;-61
2021/11/09 01:41:55;;;;;;;62.93;25.33;;;3.60;99.90;;;;;;5071385;28;20269;-61
2021/11/09 01:44:24;;;;;;;68.57;25.73;;;3.60;99.90;;;;;;5069187;28;20204;-61
2021/11/09 01:46:54;;;;;;;59.00;24.70;;;3.50;99.90;;;;;;5071997;28;20207;-61
2021/11/09 01:49:22;;;;;;;51.47;24.97;;;3.50;99.90;;;;;;5070366;28;20336;-61
2021/11/09 01:51:51;;;;;;;69.30;25.30;;;3.60;99.90;;;;;;5070612;28;20219;-61
2021/11/09 01:54:20;;;;;;;55.87;24.37;;;3.60;99.90;;;;;;5070026;28;20271;-61
2021/11/09 01:56:48;;;;;;;66.43;26.83;;;3.60;99.90;;;;;;5050292;28;20235;-61
2021/11/09 01:59:17;;;;;;;67.20;26.30;;;3.60;99.90;;;;;;5053168;28;20227;-61
2021/11/09 02:01:49;;;;;;;72.60;27.17;;;3.60;99.90;;;;;;5067306;28;20193;-61
2021/11/09 02:04:19;;;;;;;68.83;27.20;;;3.70;99.90;;;;;;5064485;28;20224;-61
2021/11/09 02:06:47;;;;;;;65.80;26.37;;;3.60;99.90;;;;;;5050960;28;20188;-61
2021/11/09 02:09:18;;;;;;;65.83;25.80;;;3.60;99.90;;;;;;5065607;28;20242;-61
2021/11/09 02:11:47;;;;;;;63.73;25.33;;;3.60;99.90;;;;;;5070564;28;20216;-61
2021/11/09 02:14:16;;;;;;;64.13;26.73;;;3.70;99.90;;;;;;5062170;28;20682;-61
2021/11/09 02:16:45;;;;;;;61.57;26.43;;;3.70;99.90;;;;;;5064031;28;20236;-61
2021/11/09 02:19:13;;;;;;;74.77;27.97;;;3.80;99.90;;;;;;5063300;28;20215;-61
2021/11/09 02:21:43;;;;;;;67.20;27.67;;;3.70;99.90;;;;;;5058992;28;20193;-61
2021/11/09 02:24:12;;;;;;;73.57;28.83;;;3.70;99.90;;;;;;5068589;28;20227;-61
2021/11/09 02:26:40;;;;;;;60.90;27.07;;;3.70;99.90;;;;;;5065963;28;20204;-61
2021/11/09 02:29:09;;;;;;;65.40;28.07;;;3.70;99.90;;;;;;5063896;28;20249;-61
2021/11/09 02:31:37;;;;;;;73.83;28.00;;;3.60;99.90;;;;;;5066154;28;20212;-61
2021/11/09 02:34:05;;;;;;;68.67;26.87;;;3.60;99.90;;;;;;5043490;28;20188;-61
2021/11/09 02:36:34;;;;;;;62.87;29.27;;;3.50;99.90;;;;;;5066487;28;20333;-61
2021/11/09 02:39:04;;;;;;;75.13;28.40;;;3.50;99.90;;;;;;5061447;28;20655;-61
2021/11/09 02:41:32;;;;;;;74.43;28.13;;;3.50;99.90;;;;;;5063396;28;20207;-61
2021/11/09 02:44:02;;;;;;;73.00;28.67;;;3.60;99.90;;;;;;5066535;28;20251;-61
2021/11/09 02:46:36;;;;;;;70.00;28.03;;;3.60;99.90;;;;;;5061656;28;20238;-61
2021/11/09 02:49:10;;;;;;;70.97;27.90;;;3.60;99.90;;;;;;5063495;28;20195;-61
2021/11/09 02:51:42;;;;;;;71.17;28.80;;;3.60;99.90;;;;;;5042881;28;20216;-61
2021/11/09 02:54:17;;;;;;;80.77;29.13;;;3.60;99.90;;;;;;5043876;28;20225;-62
2021/11/09 02:56:48;;;;;;;69.30;28.37;;;3.60;99.90;;;;;;5066721;28;20203;-61
2021/11/09 03:02:17;;;;;;;67.33;29.03;;;3.70;99.90;;;;;;5051398;28;20366;-61
2021/11/09 03:04:59;;;;;;;76.43;29.57;;;3.70;99.90;;;;;;5066353;28;20233;-61
2021/11/09 03:07:31;;;;;;;75.80;29.07;;;3.70;99.90;;;;;;5062336;28;20193;-61
2021/11/09 03:10:04;;;;;;;83.87;30.77;;;3.60;99.90;;;;;;5064684;28;20200;-61
2021/11/09 03:12:35;;;;;;;78.33;31.17;;;3.50;99.90;;;;;;5060605;28;20296;-61
2021/11/09 03:15:07;;;;;;;80.17;31.90;;;3.50;99.90;;;;;;5079274;28;20257;-61
2021/11/09 03:17:41;;;;;;;81.93;31.30;;;3.60;99.90;;;;;;5063193;28;20293;-61
2021/11/09 03:20:16;;;;;;;71.40;28.80;;;3.60;99.90;;;;;;5062834;28;20195;-61
2021/11/09 03:39:59;;;;;;;74.80;29.30;;;3.60;99.90;;;;;;5071894;28;20229;-61
2021/11/09 03:40:13;;;;;;;79.40;29.17;;;3.50;99.90;;;;;;5065244;28;20303;-61
2021/11/09 03:45:31;;;;;;;70.90;29.30;;;3.50;99.90;;;;;;5067252;28;20250;-61
2021/11/09 03:48:05;;;;;;;74.97;27.97;;;3.50;99.90;;;;;;5066037;28;20189;-61
2021/11/09 03:50:34;;;;;;;63.43;28.50;;;3.50;99.90;;;;;;5063941;28;20188;-61
2021/11/09 03:53:07;;;;;;;79.83;27.57;;;3.50;99.90;;;;;;5069413;28;20239;-61
2021/11/09 03:55:52;;;;;;;64.07;26.10;;;3.40;99.90;;;;;;5063840;28;20721;-61
2021/11/09 03:58:25;;;;;;;65.70;26.97;;;3.40;99.90;;;;;;5063127;28;20227;-61
2021/11/09 04:00:58;;;;;;;67.80;27.67;;;3.40;99.90;;;;;;5065433;28;20200;-60
2021/11/09 04:03:39;;;;;;;60.90;26.90;;;3.40;99.90;;;;;;5050494;28;20192;-61
2021/11/09 04:06:20;;;;;;;76.43;27.73;;;3.40;99.90;;;;;;5066616;28;20235;-61
2021/11/09 04:08:55;;;;;;;81.97;29.20;;;3.50;99.90;;;;;;5061816;28;20232;-61
2021/11/09 04:11:27;;;;;;;75.80;28.57;;;3.60;99.90;;;;;;5068054;28;20228;-61
2021/11/09 04:14:02;;;;;;;82.87;29.03;;;3.60;99.90;;;;;;5064016;28;20620;-61
2021/11/09 04:16:44;;;;;;;70.67;28.90;;;3.50;99.90;;;;;;5068803;28;20317;-61
2021/11/09 04:22:46;;;;;;;75.07;30.07;;;3.50;99.90;;;;;;5028435;28;20686;-61
2021/11/09 04:25:23;;;;;;;69.60;28.07;;;3.50;99.90;;;;;;5058700;28;20197;-62
2021/11/09 04:27:59;;;;;;;76.13;29.67;;;3.50;99.90;;;;;;5081018;28;20188;-61
2021/11/09 04:30:43;;;;;;;74.33;28.10;;;3.50;99.90;;;;;;5064677;28;20532;-61
2021/11/09 05:09:31;;;;;;;67.57;25.47;;;3.40;99.90;;;;;;5062465;28;20222;-61
2021/11/09 05:12:01;;;;;;;57.43;24.70;;;3.40;99.90;;;;;;5063775;28;20200;-61
2021/11/09 05:14:30;;;;;;;66.50;24.80;;;3.40;99.90;;;;;;5065636;28;20841;-61
2021/11/09 05:17:00;;;;;;;61.70;25.20;;;3.40;99.90;;;;;;5065169;28;20259;-61
2021/11/09 05:19:30;;;;;;;68.07;24.97;;;3.40;99.90;;;;;;5066938;28;20199;-62
2021/11/09 05:22:00;;;;;;;52.00;23.40;;;3.40;99.90;;;;;;5041884;28;20196;-61
2021/11/09 05:24:28;;;;;;;59.37;23.93;;;3.40;99.90;;;;;;5065763;28;20223;-61
2021/11/09 05:26:56;;;;;;;62.07;23.93;;;3.30;99.90;;;;;;5065980;28;20196;-61
2021/11/09 05:29:25;;;;;;;55.63;24.37;;;3.30;99.90;;;;;;5061403;28;20193;-61
2021/11/09 05:31:58;;;;;;;61.53;24.97;;;3.30;99.90;;;;;;5064891;28;20197;-61
2021/11/09 05:34:29;;;;;;;61.73;25.17;;;3.40;99.90;;;;;;5067687;28;20295;-61
2021/11/09 05:36:59;;;;;;;79.60;28.20;;;3.40;99.90;;;;;;5068802;28;20222;-61
2021/11/09 05:39:32;;;;;;;66.37;27.77;;;3.50;99.90;;;;;;5066955;28;20277;-61
2021/11/09 05:42:02;;;;;;;77.33;28.67;;;3.50;99.90;;;;;;5048063;28;20747;-62
2021/11/09 05:44:31;;;;;;;70.40;27.00;;;3.60;99.90;;;;;;5057310;28;20647;-61
2021/11/09 05:46:59;;;;;;;72.37;29.00;;;3.60;99.90;;;;;;5064407;28;20257;-61
2021/11/09 05:49:28;;;;;;;66.57;26.93;;;3.60;99.90;;;;;;5066544;28;20196;-61
2021/11/09 05:51:57;;;;;;;66.97;26.30;;;3.60;99.90;;;;;;5061435;28;20219;-61
2021/11/09 05:54:26;;;;;;;71.33;25.43;;;3.60;99.90;;;;;;5068314;28;20275;-61
2021/11/09 05:56:55;;;;;;;67.27;26.40;;;3.50;99.90;;;;;;5065905;28;20236;-61
2021/11/09 05:59:23;;;;;;;75.83;27.40;;;3.50;99.90;;;;;;5044421;28;20196;-61
2021/11/09 06:01:52;;;;;;;58.27;23.60;;;3.50;99.90;;;;;;5059863;28;20201;-61
2021/11/09 06:04:20;;;;;;;68.00;25.00;;;3.40;99.90;;;;;;5045830;28;20674;-61
2021/11/09 06:06:49;;;;;;;59.43;24.50;;;3.40;99.90;;;;;;5066436;28;20196;-62
2021/11/09 06:09:17;;;;;;;74.33;24.97;;;3.30;99.90;;;;;;5069056;28;20700;-61
2021/11/09 06:11:47;;;;;;;68.03;25.07;;;3.30;99.90;;;;;;5061041;28;20660;-61
2021/11/09 06:14:16;;;;;;;68.33;25.00;;;3.20;99.90;;;;;;5063421;28;20281;-61
2021/11/09 06:16:45;;;;;;;60.20;23.90;;;3.20;99.90;;;;;;5068388;28;20232;-61
2021/11/09 06:19:13;;;;;;;60.63;23.60;;;3.20;99.90;;;;;;5059932;28;20208;-61
2021/11/09 06:21:43;;;;;;;54.93;23.73;;;3.20;99.90;;;;;;5025519;28;20220;-61
2021/11/09 06:24:11;;;;;;;64.47;23.93;;;3.30;99.90;;;;;;5059762;28;20271;-61
2021/11/09 06:26:39;;;;;;;62.93;23.33;;;3.30;99.90;;;;;;5064022;28;20203;-62
2021/11/09 06:29:09;;;;;;;63.93;24.50;;;3.30;99.90;;;;;;5064144;28;20749;-62
2021/11/09 06:31:38;;;;;;;62.17;24.27;;;3.30;99.90;;;;;;5047207;28;20200;-61
2021/11/09 06:34:06;;;;;;;68.73;24.67;;;3.30;99.90;;;;;;5064380;28;20216;-62
2021/11/09 06:36:35;;;;;;;61.23;24.57;;;3.20;99.90;;;;;;5078887;28;20200;-61
2021/11/09 06:39:08;;;;;;;63.30;24.53;;;3.20;99.90;;;;;;5062591;28;20192;-61
2021/11/09 06:41:36;;;;;;;65.73;25.27;;;3.10;99.90;;;;;;5061829;28;20199;-61
2021/11/09 06:44:06;;;;;;;66.17;25.10;;;3.10;99.90;;;;;;5063368;28;20196;-61
2021/11/09 06:46:36;;;;;;;64.63;24.07;;;3.10;99.90;;;;;;5048663;28;20207;-61
2021/11/09 06:49:06;;;;;;;62.80;23.67;;;3.00;99.90;;;;;;5049765;28;20191;-61
2021/11/09 06:51:34;;;;;;;59.77;24.20;;;3.00;99.90;;;;;;5064334;28;20894;-61
2021/11/09 06:54:03;;;;;;;61.23;23.83;;;3.00;99.90;;;;;;5061648;28;20682;-61
2021/11/09 06:56:35;;;;;;;83.77;24.50;;;3.00;99.90;;;;;;5062887;28;20192;-61
2021/11/09 06:59:04;;;;;;;66.13;23.70;;;3.00;99.90;;;;;;5061927;28;20245;-61
2021/11/09 07:01:34;;;;;;;59.77;23.73;;;3.10;99.90;;;;;;5041309;28;20192;-61
2021/11/09 07:04:03;;;;;;;63.57;23.27;;;3.20;99.90;;;;;;5062708;28;20193;-61
2021/11/09 07:06:32;;;;;;;56.73;23.33;;;3.20;99.90;;;;;;5063306;28;20216;-62
2021/11/09 07:09:03;;;;;;;52.23;21.77;;;3.20;99.90;;;;;;5078689;28;20196;-62
2021/11/09 07:11:32;;;;;;;61.57;23.43;;;3.20;99.90;;;;;;5064428;28;20193;-61
2021/11/09 07:14:00;;;;;;;53.70;21.40;;;3.20;99.90;;;;;;5061786;28;20260;-61
2021/11/09 07:16:29;;;;;;;59.57;22.80;;;3.20;99.90;;;;;;5070843;28;20297;-61
2021/11/09 07:19:02;;;;;;;47.07;21.60;;;3.20;99.90;;;;;;5049352;28;20204;-61
2021/11/09 07:21:31;;;;;;;50.23;21.40;;;3.30;99.90;;;;;;5064996;28;20192;-62
2021/11/09 07:23:59;;;;;;;60.67;20.93;;;3.30;99.90;;;;;;5069209;28;20816;-62
2021/11/09 07:26:30;;;;;;;53.57;19.80;;;3.30;99.90;;;;;;5070761;28;20212;-61
2021/11/09 07:28:59;;;;;;;49.07;19.87;;;3.40;99.90;;;;;;5069837;28;20206;-61
2021/11/09 07:31:29;;;;;;;57.60;20.37;;;3.50;99.90;;;;;;5066486;28;20258;-61
2021/11/09 07:33:59;;;;;;;58.80;21.33;;;3.50;99.90;;;;;;5059416;28;20218;-61
2021/11/09 07:36:27;;;;;;;67.80;21.23;;;3.50;99.90;;;;;;5067459;28;20211;-62
2021/11/09 07:38:58;;;;;;;56.47;20.63;;;3.60;99.90;;;;;;5052172;28;20216;-61
2021/11/09 07:41:26;;;;;;;49.37;20.40;;;3.80;99.90;;;;;;5065264;28;20313;-62
2021/11/09 07:43:55;;;;;;;60.97;20.37;;;3.90;99.90;;;;;;5071496;28;20244;-62
2021/11/09 07:46:24;;;;;;;60.00;20.43;;;4.10;99.90;;;;;;5070351;28;20196;-61
2021/11/09 07:48:52;;;;;;;54.63;19.37;;;4.30;99.90;;;;;;5041758;28;20196;-62
2021/11/09 07:51:23;;;;;;;55.47;20.17;;;4.40;99.90;;;;;;5042505;28;20199;-61
2021/11/09 07:53:52;;;;;;;50.80;18.33;;;4.60;99.90;;;;;;5046764;28;20224;-61
2021/11/09 07:56:22;;;;;;;53.30;19.23;;;4.60;99.90;;;;;;5065883;28;20234;-61
2021/11/09 07:59:03;;;;;;;49.43;18.50;;;4.70;99.90;;;;;;5060430;28;20196;-62
2021/11/09 08:01:35;;;;;;;46.73;17.60;;;4.90;99.90;;;;;;5062182;28;20199;-61
2021/11/09 08:04:09;;;;;;;58.07;18.83;;;5.10;99.90;;;;;;5059934;28;20267;-61
2021/11/09 08:06:50;;;;;;;56.27;22.70;;;5.30;99.90;;;;;;5063825;28;20204;-61
2021/11/09 08:09:22;;;;;;;46.07;17.20;;;5.50;99.90;;;;;;5058815;28;20425;-61
2021/11/09 08:11:51;;;;;;;52.40;15.30;;;5.70;99.90;;;;;;5064978;28;20238;-60
2021/11/09 08:14:20;;;;;;;41.97;15.07;;;5.80;99.90;;;;;;5062264;28;20899;-62
2021/11/09 08:16:49;;;;;;;42.07;17.40;;;5.80;99.90;;;;;;5063721;28;20256;-61
2021/11/09 08:19:19;;;;;;;44.90;16.03;;;5.80;99.90;;;;;;5066514;28;20279;-61
2021/11/09 08:21:51;;;;;;;44.10;17.07;;;5.90;99.90;;;;;;5062214;28;20197;-61
2021/11/09 08:24:21;;;;;;;43.23;13.73;;;5.90;99.90;;;;;;5058116;28;20279;-61
2021/11/09 08:26:52;;;;;;;44.77;14.03;;;6.00;99.90;;;;;;5059792;28;20269;-61
2021/11/09 08:29:23;;;;;;;33.93;13.50;;;6.00;99.90;;;;;;5062843;28;20667;-62
2021/11/09 08:31:54;;;;;;;35.33;16.60;;;6.20;99.90;;;;;;5068286;28;20274;-62
2021/11/09 08:34:26;;;;;;;33.63;13.67;;;6.20;99.90;;;;;;5058544;28;20347;-61
2021/11/09 08:36:58;;;;;;;89.33;64.87;;;6.40;99.90;;;;;;5048634;28;20208;-62
2021/11/09 08:39:33;;;;;;;39.50;15.63;;;6.60;99.90;;;;;;5061280;28;20199;-62
2021/11/09 08:42:12;;;;;;;29.37;11.63;;;6.70;99.90;;;;;;5061399;28;20199;-62
2021/11/09 08:44:45;;;;;;;35.43;12.00;;;6.90;99.90;;;;;;5066490;28;20195;-61
2021/11/09 08:47:18;;;;;;;35.67;11.27;;;7.00;99.90;;;;;;5064775;28;20200;-62
2021/11/09 08:49:49;;;;;;;41.27;12.77;;;7.00;99.90;;;;;;5062973;28;20257;-61
2021/11/09 08:52:21;;;;;;;28.83;12.70;;;7.10;99.90;;;;;;5075873;28;20208;-62
2021/11/09 08:54:56;;;;;;;27.70;9.60;;;7.20;99.90;;;;;;5062278;28;20686;-61
2021/11/09 09:05:49;;;;;;;39.27;14.20;;;7.80;99.90;;;;;;5004449;28;20210;-62
2021/11/09 09:08:19;;;;;;;32.43;9.83;;;7.90;99.90;;;;;;5062867;28;20192;-62
2021/11/09 09:10:48;;;;;;;22.43;8.23;;;8.00;99.90;;;;;;5031130;28;20303;-61
2021/11/09 09:13:17;;;;;;;15.63;7.83;;;8.10;99.90;;;;;;5038425;28;20199;-62
2021/11/09 09:15:46;;;;;;;22.17;7.97;;;8.20;99.90;;;;;;5061621;28;20231;-61
2021/11/09 09:18:17;;;;;;;29.37;9.50;;;8.40;99.90;;;;;;5061645;28;20200;-62
2021/11/09 09:20:48;;;;;;;23.87;8.70;;;8.50;99.90;;;;;;5062648;28;20192;-61
2021/11/09 09:23:23;;;;;;;25.87;8.73;;;8.60;99.90;;;;;;5027311;28;20204;-61
2021/11/09 09:26:04;;;;;;;24.17;8.63;;;8.70;99.90;;;;;;5058204;28;20188;-61
2021/11/09 09:29:04;;;;;;;25.23;9.53;;;8.80;99.90;;;;;;5065439;28;20196;-61
2021/11/09 09:54:06;;;;;;;27.23;11.60;;;10.00;99.90;;;;;;5045020;28;20731;-62
2021/11/09 09:56:43;;;;;;;40.93;18.60;;;10.10;99.90;;;;;;5070052;28;20216;-62
2021/11/09 09:59:12;;;;;;;46.87;22.80;;;10.20;99.90;;;;;;5050167;28;20258;-62
2021/11/09 10:02:12;;;;;;;30.53;15.27;;;10.40;99.90;;;;;;5065091;28;20196;-61
2021/11/09 10:04:42;;;;;;;23.93;8.23;;;10.40;99.90;;;;;;5067441;28;20192;-62
2021/11/09 10:07:14;;;;;;;29.27;12.90;;;10.40;99.90;;;;;;5066837;28;20740;-62
2021/11/09 10:09:45;;;;;;;27.40;10.43;;;10.30;99.90;;;;;;5050984;28;20196;-62
2021/11/09 10:12:30;;;;;;;26.53;8.87;;;10.50;99.90;;;;;;5063062;28;20291;-62
2021/11/09 10:15:02;;;;;;;21.40;7.43;;;10.50;99.90;;;;;;5068360;28;20200;-62
2021/11/09 10:17:31;;;;;;;28.33;9.10;;;10.40;99.90;;;;;;5070120;28;20184;-62
2021/11/09 10:20:09;;;;;;;22.93;8.33;;;10.60;99.90;;;;;;5066310;28;20737;-61
2021/11/09 10:22:38;;;;;;;37.20;12.93;;;10.70;99.90;;;;;;5063321;28;20613;-62
2021/11/09 10:25:10;;;;;;;28.90;11.97;;;10.80;99.90;;;;;;5048542;28;20212;-62
2021/11/09 10:27:45;;;;;;;29.63;13.87;;;10.70;99.90;;;;;;5065468;28;20195;-62
2021/11/09 10:30:16;;;;;;;28.23;9.27;;;10.90;99.90;;;;;;5067975;28;20200;-61
2021/11/09 10:32:46;;;;;;;20.23;7.90;;;11.00;99.90;;;;;;5060370;28;20230;-62
2021/11/09 10:35:17;;;;;;;23.67;6.93;;;11.30;99.90;;;;;;5062189;28;20218;-62
2021/11/09 10:37:47;;;;;;;25.33;7.97;;;11.50;99.90;;;;;;5066396;28;20284;-62
2021/11/09 10:40:21;;;;;;;25.77;7.90;;;11.40;99.90;;;;;;5072625;28;20214;-62
2021/11/09 10:42:54;;;;;;;21.37;8.03;;;11.40;99.90;;;;;;5041833;28;20257;-61
2021/11/09 10:45:24;;;;;;;20.97;7.13;;;11.60;99.90;;;;;;5068407;28;20188;-61
2021/11/09 10:47:54;;;;;;;22.30;7.67;;;11.60;99.90;;;;;;5066087;28;20203;-62
2021/11/09 10:50:27;;;;;;;30.83;8.97;;;11.60;99.90;;;;;;5066863;28;20566;-62
2021/11/09 10:53:09;;;;;;;23.23;7.30;;;11.60;99.90;;;;;;5057128;28;20223;-62
2021/11/09 10:55:43;;;;;;;24.40;8.10;;;11.70;99.90;;;;;;5066142;28;20847;-62
2021/11/09 11:06:41;;;;;;;22.40;7.03;;;12.20;99.90;;;;;;5067153;28;20235;-62
2021/11/09 11:09:19;;;;;;;14.93;6.20;;;12.50;99.90;;;;;;5062963;28;20210;-61
2021/11/09 11:12:09;;;;;;;15.40;6.20;;;12.70;99.90;;;;;;5065576;28;20196;-61
2021/11/09 11:14:41;;;;;;;16.83;6.50;;;12.70;99.90;;;;;;5068931;28;20579;-62
2021/11/09 11:17:11;;;;;;;21.30;6.67;;;12.70;99.90;;;;;;5064168;28;20332;-61
2021/11/09 11:19:43;;;;;;;15.00;6.10;;;12.70;99.90;;;;;;5063492;28;20659;-62
2021/11/09 11:22:14;;;;;;;23.27;6.77;;;12.70;99.90;;;;;;5064218;28;20567;-62
2021/11/09 11:24:43;;;;;;;22.70;6.53;;;12.70;99.90;;;;;;5066266;28;20827;-61
2021/11/09 11:27:12;;;;;;;15.80;6.50;;;12.80;99.90;;;;;;5075702;28;20212;-62
2021/11/09 11:29:45;;;;;;;21.27;6.00;;;13.00;99.90;;;;;;5047879;28;20250;-61
2021/11/09 11:32:17;;;;;;;16.37;6.60;;;13.30;99.90;;;;;;5046662;28;20565;-62
2021/11/09 11:34:46;;;;;;;20.80;6.50;;;13.40;99.90;;;;;;5062746;28;20605;-62
2021/11/09 11:37:18;;;;;;;14.27;6.53;;;13.40;99.90;;;;;;5065932;28;20212;-62
2021/11/09 11:39:50;;;;;;;19.07;6.50;;;13.20;99.90;;;;;;5062110;28;20633;-62
2021/11/09 11:42:19;;;;;;;22.53;6.40;;;13.00;99.90;;;;;;5050731;28;20188;-62
2021/11/09 11:44:58;;;;;;;18.00;5.90;;;12.90;99.90;;;;;;5080414;28;20716;-62
2021/11/09 11:47:26;;;;;;;21.53;6.10;;;12.80;99.90;;;;;;5065996;28;20261;-62
2021/11/09 11:49:58;;;;;;;16.70;6.40;;;12.70;99.90;;;;;;5063367;28;20245;-62
2021/11/09 11:52:30;;;;;;;18.30;6.23;;;12.70;99.90;;;;;;5046432;28;20277;-61
2021/11/09 11:55:09;;;;;;;22.50;6.57;;;12.60;99.90;;;;;;5062275;28;20728;-61
2021/11/09 11:57:42;;;;;;;22.10;6.87;;;12.70;99.90;;;;;;5060651;28;20300;-62
2021/11/09 12:00:37;;;;;;;19.23;6.13;;;12.70;99.90;;;;;;5039515;28;20663;-63
2021/11/09 12:03:48;;;;;;;16.83;6.13;;;12.70;99.90;;;;;;5060104;28;20547;-62
2021/11/09 12:06:24;;;;;;;21.63;7.00;;;12.70;99.90;;;;;;5081537;28;20211;-62
2021/11/09 12:08:55;;;;;;;19.00;6.27;;;12.80;99.90;;;;;;5065389;28;20192;-62
2021/11/09 12:11:40;;;;;;;25.40;6.97;;;12.80;99.90;;;;;;5040363;28;20250;-62
2021/11/09 12:14:15;;;;;;;17.60;6.30;;;12.70;99.90;;;;;;5047864;28;20200;-62
2021/11/09 12:16:54;;;;;;;17.50;5.90;;;12.80;99.90;;;;;;5064328;28;20227;-62
2021/11/09 12:19:50;;;;;;;28.57;7.07;;;12.90;99.90;;;;;;5064386;28;20287;-62
2021/11/09 12:22:22;;;;;;;21.30;6.13;;;13.30;99.90;;;;;;5047633;28;20575;-62
2021/11/09 12:24:55;;;;;;;17.87;6.27;;;13.40;99.90;;;;;;5064895;28;20188;-62
2021/11/09 12:27:29;;;;;;;19.33;6.00;;;13.50;99.90;;;;;;5049306;28;20719;-61
2021/11/09 12:30:02;;;;;;;21.33;5.10;;;13.70;99.90;;;;;;5061164;28;20273;-62
2021/11/09 12:32:40;;;;;;;16.47;5.07;;;13.70;99.90;;;;;;5067932;28;20196;-62
2021/11/09 12:35:26;;;;;;;20.53;6.27;;;13.60;99.90;;;;;;5067506;28;20227;-62
2021/11/09 12:38:15;;;;;;;17.60;5.73;;;13.30;99.90;;;;;;5080003;28;20266;-62
2021/11/09 12:40:51;;;;;;;23.73;6.33;;;13.00;99.90;;;;;;5064421;28;20200;-62
2021/11/09 12:43:23;;;;;;;25.80;9.10;;;13.00;99.90;;;;;;5050145;28;20896;-62
2021/11/09 12:46:03;;;;;;;22.93;6.80;;;13.10;99.90;;;;;;5045911;28;20270;-62
2021/11/09 12:48:35;;;;;;;19.70;5.63;;;13.20;99.90;;;;;;5064855;28;20678;-62
2021/11/09 12:51:05;;;;;;;19.63;6.07;;;13.30;99.90;;;;;;5066726;28;20271;-62
2021/11/09 12:53:37;;;;;;;18.90;5.90;;;13.40;99.90;;;;;;5048649;28;20736;-62
2021/11/09 12:56:09;;;;;;;15.03;7.57;;;13.50;99.90;;;;;;5050923;28;20246;-62
2021/11/09 12:58:47;;;;;;;17.00;5.00;;;13.60;99.90;;;;;;5065936;28;20180;-62
2021/11/09 13:01:27;;;;;;;14.80;5.10;;;13.90;99.90;;;;;;5078364;28;20345;-61
2021/11/09 13:04:05;;;;;;;15.20;5.33;;;14.00;99.90;;;;;;5064683;28;20222;-61
2021/11/09 13:06:42;;;;;;;16.43;5.53;;;13.90;99.90;;;;;;5063719;28;20332;-62
2021/11/09 13:09:21;;;;;;;15.50;5.13;;;13.60;99.90;;;;;;5064921;28;20224;-61
2021/11/09 13:11:53;;;;;;;16.07;5.33;;;13.50;99.90;;;;;;5067036;28;20650;-62
2021/11/09 13:14:25;;;;;;;22.17;5.20;;;13.40;99.90;;;;;;5029467;28;20188;-61
2021/11/09 13:17:16;;;;;;;17.20;5.37;;;13.40;99.90;;;;;;5078775;28;20224;-62
2021/11/09 13:19:48;;;;;;;23.00;5.17;;;13.40;99.90;;;;;;5049507;28;20212;-62
2021/11/09 13:22:18;;;;;;;18.10;5.57;;;13.30;99.90;;;;;;5050798;28;20212;-62
2021/11/09 13:24:57;;;;;;;23.23;5.07;;;13.30;99.90;;;;;;5049613;28;20604;-62
2021/11/09 13:27:39;;;;;;;16.13;4.97;;;13.20;99.90;;;;;;5061104;28;20230;-61
2021/11/09 13:30:12;;;;;;;22.87;5.43;;;13.20;99.90;;;;;;5044601;28;20225;-60
2021/11/09 13:32:41;;;;;;;19.77;5.30;;;13.20;99.90;;;;;;5049945;28;20224;-62
2021/11/09 13:35:21;;;;;;;18.20;5.50;;;13.00;99.90;;;;;;5046614;28;20197;-62
2021/11/09 13:37:51;;;;;;;16.23;5.83;;;13.10;99.90;;;;;;5050656;28;20212;-62
2021/11/09 13:40:21;;;;;;;23.03;5.40;;;13.00;99.90;;;;;;5044522;28;20231;-62
2021/11/09 13:43:00;;;;;;;16.90;5.37;;;13.00;99.90;;;;;;5077996;28;20205;-62
2021/11/09 13:45:29;;;;;;;15.37;5.20;;;13.10;99.90;;;;;;5047185;28;20259;-62
2021/11/09 13:48:00;;;;;;;19.70;4.63;;;13.10;99.90;;;;;;5044096;28;20189;-62
2021/11/09 13:50:30;;;;;;;18.77;4.80;;;13.00;99.90;;;;;;5050469;28;20543;-61
2021/11/09 13:52:58;;;;;;;18.73;5.70;;;13.00;99.90;;;;;;5049403;28;20201;-62
2021/11/09 13:55:27;;;;;;;18.23;4.97;;;13.00;99.90;;;;;;5048420;28;20276;-62
2021/11/09 13:57:55;;;;;;;18.10;5.10;;;12.90;99.90;;;;;;5049083;28;20205;-62
2021/11/09 14:00:30;;;;;;;13.47;4.67;;;12.90;99.90;;;;;;5042140;28;20211;-62
2021/11/09 14:03:20;;;;;;;19.13;5.10;;;13.00;99.90;;;;;;5045118;28;20260;-62
2021/11/09 14:08:57;;;;;;;17.90;5.03;;;13.00;99.90;;;;;;5048295;28;20189;-62
2021/11/09 14:17:16;;;;;;;18.57;5.03;;;13.00;99.90;;;;;;4977880;28;20214;-62
2021/11/09 14:19:45;;;;;;;18.87;5.77;;;13.00;99.90;;;;;;5035306;28;20310;-62
2021/11/09 14:22:16;;;;;;;18.43;6.97;;;13.00;99.90;;;;;;5044399;28;20208;-62
2021/11/09 14:24:57;;;;;;;16.53;5.83;;;13.00;99.90;;;;;;5040399;28;20201;-62
2021/11/09 14:27:28;;;;;;;23.30;6.30;;;13.00;99.90;;;;;;5042547;28;20189;-62
2021/11/09 14:30:02;;;;;;;16.60;5.30;;;13.00;99.90;;;;;;5048013;28;20192;-62
2021/11/09 14:32:33;;;;;;;20.27;5.63;;;12.90;99.90;;;;;;5048916;28;20209;-62
2021/11/09 14:35:08;;;;;;;15.53;4.90;;;12.90;99.90;;;;;;5047392;28;20235;-62
2021/11/09 14:37:52;;;;;;;15.83;6.37;;;12.90;99.90;;;;;;5044440;28;20232;-62
2021/11/09 14:40:29;;;;;;;16.77;5.70;;;12.90;99.90;;;;;;5050747;28;20262;-62
2021/11/09 14:43:04;;;;;;;18.60;6.30;;;12.90;99.90;;;;;;5049661;28;20697;-62
2021/11/09 14:45:36;;;;;;;16.00;6.40;;;12.90;99.90;;;;;;5050206;28;20265;-62
2021/11/09 14:48:09;;;;;;;19.33;5.67;;;12.80;99.90;;;;;;5047704;28;20206;-62
2021/11/09 14:50:47;;;;;;;17.00;5.47;;;12.90;99.90;;;;;;5050760;28;20207;-62